createdAt,value
2018-01-14T00:00:45.678Z,7.40
2018-01-14T00:01:45.683Z,7.50
2018-01-14T00:02:45.670Z,7.00
2018-01-14T00:04:06.687Z,7.60
2018-01-14T00:04:45.670Z,7.20
2018-01-14T00:05:45.660Z,7.20
2018-01-14T00:06:45.647Z,7.20
2018-01-14T00:07:45.649Z,7.90
2018-01-14T00:08:45.661Z,7.70
2018-01-14T00:10:06.662Z,7.20
2018-01-14T00:10:45.660Z,7.90
2018-01-14T00:11:45.642Z,7.20
2018-01-14T00:12:45.638Z,7.60
2018-01-14T00:13:45.637Z,7.70
2018-01-14T00:14:45.657Z,7.50
2018-01-14T00:16:06.637Z,7.20
2018-01-14T00:16:45.631Z,7.10
2018-01-14T00:17:45.639Z,7.30
2018-01-14T00:18:45.642Z,7.50
2018-01-14T00:19:45.607Z,8.10
2018-01-14T00:20:45.624Z,7.60
2018-01-14T00:22:06.618Z,7.80
2018-01-14T00:22:45.611Z,7.80
2018-01-14T00:23:45.599Z,7.70
2018-01-14T00:24:45.602Z,7.80
2018-01-14T00:25:45.600Z,7.30
2018-01-14T00:26:45.596Z,7.30
2018-01-14T00:28:06.603Z,7.60
2018-01-14T00:28:45.591Z,7.40
2018-01-14T00:29:45.596Z,7.40
2018-01-14T00:30:45.582Z,7.70
2018-01-14T00:31:45.572Z,7.60
2018-01-14T00:32:45.571Z,7.60
2018-01-14T00:34:06.593Z,7.50
2018-01-14T00:34:45.565Z,7.90
2018-01-14T00:35:45.558Z,7.60
2018-01-14T00:36:45.553Z,7.40
2018-01-14T00:37:45.572Z,7.50
2018-01-14T00:38:45.555Z,7.90
2018-01-14T00:40:06.563Z,7.70
2018-01-14T00:40:45.557Z,8.00
2018-01-14T00:41:45.604Z,7.10
2018-01-14T00:42:45.534Z,7.70
2018-01-14T00:43:45.537Z,8.00
2018-01-14T00:44:45.541Z,7.60
2018-01-14T00:46:06.546Z,7.90
2018-01-14T00:46:45.550Z,7.40
2018-01-14T00:47:45.528Z,7.50
2018-01-14T00:48:45.520Z,7.40
2018-01-14T00:49:45.516Z,7.20
2018-01-14T00:50:45.511Z,7.50
2018-01-14T00:52:06.527Z,7.80
2018-01-14T00:52:45.509Z,7.40
2018-01-14T00:53:45.504Z,7.90
2018-01-14T00:54:45.512Z,7.80
2018-01-14T00:55:45.539Z,7.70
2018-01-14T00:56:45.508Z,7.40
2018-01-14T00:58:06.512Z,7.90
2018-01-14T00:58:45.483Z,7.80
2018-01-14T00:59:45.484Z,7.20
2018-01-14T01:00:45.481Z,7.80
2018-01-14T01:01:45.479Z,7.40
2018-01-14T01:02:45.466Z,8.00
2018-01-14T01:04:06.486Z,7.70
2018-01-14T01:04:45.469Z,7.90
2018-01-14T01:05:45.454Z,7.60
2018-01-14T01:06:45.471Z,7.60
2018-01-14T01:07:45.472Z,8.60
2018-01-14T01:08:45.453Z,7.60
2018-01-14T01:10:06.462Z,7.50
2018-01-14T01:10:45.448Z,7.60
2018-01-14T01:11:45.442Z,7.30
2018-01-14T01:12:45.442Z,7.50
2018-01-14T01:13:45.434Z,7.50
2018-01-14T01:14:45.423Z,7.70
2018-01-14T01:16:06.440Z,8.30
2018-01-14T01:16:45.426Z,7.80
2018-01-14T01:17:45.422Z,7.10
2018-01-14T01:18:45.423Z,7.60
2018-01-14T01:19:45.417Z,7.40
2018-01-14T01:20:45.427Z,7.90
2018-01-14T01:22:06.413Z,7.50
2018-01-14T01:22:45.399Z,7.80
2018-01-14T01:23:45.402Z,7.60
2018-01-14T01:24:45.401Z,7.70
2018-01-14T01:25:45.398Z,8.00
2018-01-14T01:26:45.379Z,7.40
2018-01-14T01:28:06.405Z,7.40
2018-01-14T01:28:45.379Z,7.70
2018-01-14T01:29:45.396Z,7.60
2018-01-14T01:30:45.367Z,7.50
2018-01-14T01:31:45.369Z,7.50
2018-01-14T01:32:45.372Z,7.60
2018-01-14T01:34:06.371Z,7.40
2018-01-14T01:34:45.362Z,7.50
2018-01-14T01:35:45.362Z,7.30
2018-01-14T01:36:45.357Z,7.90
2018-01-14T01:37:45.348Z,7.70
2018-01-14T01:38:45.352Z,7.60
2018-01-14T01:40:06.360Z,7.60
2018-01-14T01:40:45.333Z,6.90
2018-01-14T01:41:45.344Z,7.60
2018-01-14T01:42:45.346Z,7.20
2018-01-14T01:43:45.330Z,7.60
2018-01-14T01:44:45.331Z,7.50
2018-01-14T01:46:06.331Z,7.70
2018-01-14T01:46:45.309Z,7.10
2018-01-14T01:47:45.313Z,7.10
2018-01-14T01:48:45.310Z,7.80
2018-01-14T01:49:45.312Z,7.80
2018-01-14T01:50:45.300Z,7.30
2018-01-14T01:52:06.309Z,7.40
2018-01-14T01:52:45.319Z,7.20
2018-01-14T01:53:45.295Z,7.50
2018-01-14T01:54:45.288Z,7.60
2018-01-14T01:55:45.293Z,7.00
2018-01-14T01:56:45.299Z,7.70
2018-01-14T01:58:06.315Z,7.10
2018-01-14T01:58:45.283Z,7.10
2018-01-14T01:59:45.284Z,7.60
2018-01-14T02:00:45.264Z,7.30
2018-01-14T02:01:45.264Z,7.10
2018-01-14T02:02:45.267Z,7.80
2018-01-14T02:04:06.262Z,7.40
2018-01-14T02:04:45.264Z,8.00
2018-01-14T02:05:45.262Z,7.50
2018-01-14T02:06:45.254Z,7.70
2018-01-14T02:07:45.245Z,7.10
2018-01-14T02:08:45.248Z,7.50
2018-01-14T02:10:06.258Z,7.50
2018-01-14T02:10:45.240Z,7.20
2018-01-14T02:11:45.285Z,7.70
2018-01-14T02:12:45.244Z,7.30
2018-01-14T02:13:45.224Z,7.70
2018-01-14T02:14:45.234Z,7.60
2018-01-14T02:16:06.232Z,7.50
2018-01-14T02:16:45.224Z,7.20
2018-01-14T02:17:45.214Z,7.80
2018-01-14T02:18:45.214Z,7.80
2018-01-14T02:19:45.208Z,7.80
2018-01-14T02:20:45.208Z,7.40
2018-01-14T02:22:06.199Z,7.30
2018-01-14T02:22:45.198Z,7.80
2018-01-14T02:23:45.210Z,7.20
2018-01-14T02:24:45.192Z,7.20
2018-01-14T02:25:45.202Z,7.50
2018-01-14T02:26:45.188Z,7.10
2018-01-14T02:28:06.190Z,7.70
2018-01-14T02:28:45.180Z,8.20
2018-01-14T02:29:45.170Z,7.50
2018-01-14T02:30:45.179Z,7.50
2018-01-14T02:31:45.172Z,7.60
2018-01-14T02:32:45.154Z,7.80
2018-01-14T02:34:06.166Z,7.30
2018-01-14T02:34:45.161Z,7.60
2018-01-14T02:35:45.158Z,7.60
2018-01-14T02:36:45.160Z,7.50
2018-01-14T02:37:45.153Z,7.20
2018-01-14T02:38:45.139Z,7.40
2018-01-14T02:40:06.155Z,7.40
2018-01-14T02:40:45.137Z,7.50
2018-01-14T02:41:45.143Z,7.70
2018-01-14T02:42:45.128Z,7.70
2018-01-14T02:43:45.130Z,7.80
2018-01-14T02:44:45.125Z,7.10
2018-01-14T02:46:06.129Z,7.40
2018-01-14T02:46:45.119Z,7.50
2018-01-14T02:47:45.109Z,7.70
2018-01-14T02:48:45.114Z,7.50
2018-01-14T02:49:45.108Z,7.80
2018-01-14T02:50:45.113Z,7.60
2018-01-14T02:52:06.114Z,7.30
2018-01-14T02:52:45.093Z,8.00
2018-01-14T02:53:45.108Z,7.50
2018-01-14T02:54:45.091Z,7.20
2018-01-14T02:55:45.083Z,7.40
2018-01-14T02:56:45.081Z,7.90
2018-01-14T02:58:06.093Z,7.50
2018-01-14T02:58:45.073Z,7.70
2018-01-14T02:59:45.078Z,7.30
2018-01-14T03:00:45.084Z,7.90
2018-01-14T03:01:45.069Z,7.40
2018-01-14T03:02:45.064Z,7.10
2018-01-14T03:04:06.073Z,7.60
2018-01-14T03:04:45.054Z,7.70
2018-01-14T03:05:45.048Z,7.30
2018-01-14T03:06:45.063Z,7.50
2018-01-14T03:07:45.049Z,7.60
2018-01-14T03:08:45.039Z,7.40
2018-01-14T03:10:06.054Z,7.50
2018-01-14T03:10:45.038Z,7.50
2018-01-14T03:11:45.029Z,7.90
2018-01-14T03:12:45.030Z,7.30
2018-01-14T03:13:45.018Z,7.70
2018-01-14T03:14:45.023Z,7.10
2018-01-14T03:16:06.027Z,7.70
2018-01-14T03:16:45.019Z,7.20
2018-01-14T03:17:45.008Z,7.50
2018-01-14T03:18:45.012Z,7.60
2018-01-14T03:19:45.005Z,7.20
2018-01-14T03:20:45.001Z,7.60
2018-01-14T03:22:06.005Z,7.50
2018-01-14T03:22:45.000Z,7.90
2018-01-14T03:23:44.998Z,7.60
2018-01-14T03:24:44.981Z,7.70
2018-01-14T03:25:44.995Z,7.30
2018-01-14T03:26:44.975Z,7.40
2018-01-14T03:28:05.989Z,7.70
2018-01-14T03:28:44.984Z,7.70
2018-01-14T03:29:44.978Z,7.60
2018-01-14T03:30:44.974Z,7.70
2018-01-14T03:31:44.974Z,7.70
2018-01-14T03:32:44.956Z,7.50
2018-01-14T03:34:05.964Z,7.00
2018-01-14T03:34:44.959Z,7.40
2018-01-14T03:35:44.959Z,7.40
2018-01-14T03:36:44.961Z,7.30
2018-01-14T03:37:44.947Z,7.50
2018-01-14T03:38:44.948Z,7.50
2018-01-14T03:40:05.936Z,7.50
2018-01-14T03:40:44.940Z,7.00
2018-01-14T03:41:44.927Z,7.50
2018-01-14T03:42:44.927Z,8.20
2018-01-14T03:43:44.915Z,8.00
2018-01-14T03:44:44.920Z,7.70
2018-01-14T03:46:05.920Z,7.50
2018-01-14T03:46:44.910Z,7.30
2018-01-14T03:47:44.904Z,7.20
2018-01-14T03:48:44.904Z,7.50
2018-01-14T03:49:44.899Z,7.60
2018-01-14T03:50:44.899Z,7.90
2018-01-14T03:52:05.916Z,7.50
2018-01-14T03:52:44.886Z,7.80
2018-01-14T03:53:44.882Z,7.40
2018-01-14T03:54:44.887Z,7.50
2018-01-14T03:55:44.891Z,7.30
2018-01-14T03:56:44.876Z,7.40
2018-01-14T03:58:05.887Z,7.60
2018-01-14T03:58:44.871Z,7.10
2018-01-14T03:59:44.864Z,7.20
2018-01-14T04:00:44.869Z,7.60
2018-01-14T04:01:44.861Z,7.10
2018-01-14T04:02:44.850Z,7.40
2018-01-14T04:04:05.860Z,7.70
2018-01-14T04:04:44.861Z,7.40
2018-01-14T04:05:44.852Z,7.20
2018-01-14T04:06:44.840Z,7.20
2018-01-14T04:07:44.841Z,7.30
2018-01-14T04:08:44.837Z,7.20
2018-01-14T04:10:05.858Z,7.10
2018-01-14T04:10:44.831Z,7.30
2018-01-14T04:11:44.825Z,7.40
2018-01-14T04:12:44.826Z,7.10
2018-01-14T04:13:44.816Z,7.30
2018-01-14T04:14:44.822Z,7.50
2018-01-14T04:16:05.822Z,7.30
2018-01-14T04:16:44.806Z,7.40
2018-01-14T04:17:44.802Z,7.50
2018-01-14T04:18:44.800Z,7.20
2018-01-14T04:19:44.799Z,7.40
2018-01-14T04:20:44.799Z,7.40
2018-01-14T04:22:05.787Z,7.40
2018-01-14T04:22:44.789Z,7.40
2018-01-14T04:23:44.781Z,7.10
2018-01-14T04:24:44.784Z,7.70
2018-01-14T04:25:44.782Z,7.40
2018-01-14T04:26:44.775Z,7.50
2018-01-14T04:28:05.770Z,7.60
2018-01-14T04:28:44.770Z,7.50
2018-01-14T04:29:44.764Z,7.30
2018-01-14T04:30:44.760Z,7.60
2018-01-14T04:31:44.760Z,7.50
2018-01-14T04:32:44.766Z,7.40
2018-01-14T04:34:05.753Z,7.10
2018-01-14T04:34:44.762Z,7.10
2018-01-14T04:35:44.755Z,7.30
2018-01-14T04:36:44.745Z,7.50
2018-01-14T04:37:44.743Z,7.80
2018-01-14T04:38:44.736Z,7.60
2018-01-14T04:40:05.735Z,7.30
2018-01-14T04:40:44.726Z,6.90
2018-01-14T04:41:44.725Z,7.10
2018-01-14T04:42:44.724Z,7.30
2018-01-14T04:43:44.715Z,7.30
2018-01-14T04:44:44.715Z,7.10
2018-01-14T04:46:05.727Z,7.60
2018-01-14T04:46:44.707Z,7.10
2018-01-14T04:47:44.710Z,7.60
2018-01-14T04:48:44.706Z,7.20
2018-01-14T04:49:44.722Z,7.60
2018-01-14T04:50:44.695Z,7.50
2018-01-14T04:52:05.690Z,7.00
2018-01-14T04:52:44.682Z,7.40
2018-01-14T04:53:44.682Z,7.80
2018-01-14T04:54:44.681Z,7.60
2018-01-14T04:55:44.672Z,7.10
2018-01-14T04:56:44.665Z,7.20
2018-01-14T04:58:05.682Z,7.60
2018-01-14T04:58:44.669Z,7.60
2018-01-14T04:59:44.667Z,7.00
2018-01-14T05:00:44.657Z,7.20
2018-01-14T05:01:44.657Z,7.30
2018-01-14T05:02:44.656Z,7.40
2018-01-14T05:04:05.656Z,7.40
2018-01-14T05:04:44.645Z,7.90
2018-01-14T05:05:44.643Z,7.50
2018-01-14T05:06:44.638Z,7.60
2018-01-14T05:07:44.636Z,7.20
2018-01-14T05:08:44.635Z,7.70
2018-01-14T05:10:05.638Z,7.10
2018-01-14T05:10:44.631Z,7.30
2018-01-14T05:11:44.652Z,7.10
2018-01-14T05:12:44.648Z,7.30
2018-01-14T05:13:44.608Z,7.00
2018-01-14T05:14:44.617Z,7.00
2018-01-14T05:16:05.611Z,8.00
2018-01-14T05:16:44.607Z,7.50
2018-01-14T05:17:44.606Z,7.60
2018-01-14T05:18:44.598Z,7.70
2018-01-14T05:19:44.601Z,7.60
2018-01-14T05:20:44.597Z,7.30
2018-01-14T05:22:05.595Z,7.50
2018-01-14T05:22:44.591Z,7.70
2018-01-14T05:23:44.578Z,7.80
2018-01-14T05:24:44.577Z,6.70
2018-01-14T05:25:44.571Z,7.60
2018-01-14T05:26:44.578Z,7.60
2018-01-14T05:28:05.573Z,7.40
2018-01-14T05:28:44.562Z,7.70
2018-01-14T05:29:44.573Z,7.70
2018-01-14T05:30:44.562Z,7.50
2018-01-14T05:31:44.561Z,7.50
2018-01-14T05:32:44.553Z,7.10
2018-01-14T05:34:05.551Z,7.20
2018-01-14T05:34:44.543Z,7.60
2018-01-14T05:35:44.551Z,7.60
2018-01-14T05:36:44.538Z,7.30
2018-01-14T05:37:44.542Z,7.20
2018-01-14T05:38:44.533Z,7.10
2018-01-14T05:40:05.542Z,7.90
2018-01-14T05:40:44.523Z,7.80
2018-01-14T05:41:44.521Z,7.70
2018-01-14T05:42:44.521Z,7.20
2018-01-14T05:43:44.512Z,7.00
2018-01-14T05:44:44.517Z,7.00
2018-01-14T05:46:05.516Z,7.90
2018-01-14T05:46:44.504Z,7.60
2018-01-14T05:47:44.496Z,7.50
2018-01-14T05:48:44.491Z,7.40
2018-01-14T05:49:44.493Z,7.80
2018-01-14T05:50:44.494Z,7.50
2018-01-14T05:52:05.493Z,7.30
2018-01-14T05:52:44.483Z,7.10
2018-01-14T05:53:44.486Z,7.30
2018-01-14T05:54:44.479Z,7.50
2018-01-14T05:55:44.473Z,7.20
2018-01-14T05:56:44.469Z,7.50
2018-01-14T05:58:05.472Z,7.80
2018-01-14T05:58:44.458Z,7.20
2018-01-14T05:59:44.454Z,7.90
2018-01-14T06:00:44.462Z,6.90
2018-01-14T06:01:44.452Z,7.20
2018-01-14T06:02:44.451Z,6.80
2018-01-14T06:04:05.458Z,7.70
2018-01-14T06:04:44.442Z,7.30
2018-01-14T06:05:44.442Z,7.50
2018-01-14T06:06:44.431Z,7.10
2018-01-14T06:07:44.435Z,7.80
2018-01-14T06:08:44.428Z,7.50
2018-01-14T06:10:05.447Z,7.60
2018-01-14T06:10:44.417Z,7.20
2018-01-14T06:11:44.414Z,7.40
2018-01-14T06:12:44.421Z,7.20
2018-01-14T06:13:44.415Z,7.60
2018-01-14T06:14:44.408Z,7.40
2018-01-14T06:16:05.410Z,7.30
2018-01-14T06:16:44.409Z,7.00
2018-01-14T06:17:44.400Z,7.60
2018-01-14T06:18:44.384Z,7.30
2018-01-14T06:19:44.384Z,6.90
2018-01-14T06:20:44.390Z,6.90
2018-01-14T06:22:05.388Z,7.20
2018-01-14T06:22:44.387Z,7.50
2018-01-14T06:23:44.379Z,7.40
2018-01-14T06:24:44.369Z,7.70
2018-01-14T06:25:44.369Z,7.50
2018-01-14T06:26:44.363Z,7.20
2018-01-14T06:28:05.372Z,7.00
2018-01-14T06:28:44.358Z,7.00
2018-01-14T06:29:44.356Z,7.00
2018-01-14T06:30:44.350Z,7.00
2018-01-14T06:31:44.355Z,7.30
2018-01-14T06:32:44.348Z,7.10
2018-01-14T06:34:05.353Z,7.20
2018-01-14T06:34:44.338Z,7.50
2018-01-14T06:35:44.329Z,7.00
2018-01-14T06:36:44.333Z,6.80
2018-01-14T06:37:44.333Z,7.20
2018-01-14T06:38:44.328Z,7.30
2018-01-14T06:40:05.329Z,7.20
2018-01-14T06:40:44.327Z,7.30
2018-01-14T06:41:44.344Z,7.60
2018-01-14T06:42:44.307Z,7.10
2018-01-14T06:43:44.308Z,7.40
2018-01-14T06:44:44.304Z,7.30
2018-01-14T06:46:05.298Z,7.40
2018-01-14T06:46:44.310Z,7.10
2018-01-14T06:47:44.299Z,6.90
2018-01-14T06:48:44.303Z,7.60
2018-01-14T06:49:44.286Z,7.00
2018-01-14T06:50:44.295Z,7.40
2018-01-14T06:52:05.299Z,7.40
2018-01-14T06:52:44.274Z,7.10
2018-01-14T06:53:44.287Z,7.50
2018-01-14T06:54:44.269Z,7.30
2018-01-14T06:55:44.269Z,7.30
2018-01-14T06:56:44.267Z,6.70
2018-01-14T06:58:05.279Z,7.20
2018-01-14T06:58:44.260Z,6.90
2018-01-14T06:59:44.257Z,6.90
2018-01-14T07:00:44.253Z,7.50
2018-01-14T07:01:44.249Z,7.20
2018-01-14T07:02:44.263Z,7.20
2018-01-14T07:04:05.249Z,7.10
2018-01-14T07:04:44.239Z,7.20
2018-01-14T07:05:44.225Z,7.50
2018-01-14T07:06:44.234Z,7.20
2018-01-14T07:07:44.230Z,6.90
2018-01-14T07:08:44.223Z,6.90
2018-01-14T07:10:05.231Z,6.80
2018-01-14T07:10:44.220Z,7.30
2018-01-14T07:11:44.215Z,7.40
2018-01-14T07:12:44.216Z,7.20
2018-01-14T07:13:44.208Z,6.90
2018-01-14T07:14:44.208Z,7.30
2018-01-14T07:16:05.210Z,6.80
2018-01-14T07:16:44.193Z,7.20
2018-01-14T07:17:44.197Z,7.30
2018-01-14T07:18:44.199Z,7.00
2018-01-14T07:19:44.209Z,7.50
2018-01-14T07:20:44.185Z,7.00
2018-01-14T07:22:05.205Z,7.50
2018-01-14T07:22:44.193Z,7.20
2018-01-14T07:23:44.173Z,6.80
2018-01-14T07:24:44.200Z,7.00
2018-01-14T07:25:44.172Z,7.30
2018-01-14T07:26:44.160Z,7.40
2018-01-14T07:28:05.170Z,7.90
2018-01-14T07:28:44.161Z,7.00
2018-01-14T07:29:44.155Z,7.40
2018-01-14T07:30:44.148Z,7.30
2018-01-14T07:31:44.153Z,7.20
2018-01-14T07:32:44.141Z,7.10
2018-01-14T07:34:05.140Z,7.30
2018-01-14T07:34:44.135Z,7.30
2018-01-14T07:35:44.143Z,7.20
2018-01-14T07:36:44.142Z,7.00
2018-01-14T07:37:44.131Z,7.30
2018-01-14T07:38:44.132Z,7.60
2018-01-14T07:40:05.132Z,7.10
2018-01-14T07:40:44.120Z,7.00
2018-01-14T07:41:44.105Z,7.30
2018-01-14T07:42:44.111Z,7.30
2018-01-14T07:43:44.115Z,7.20
2018-01-14T07:44:44.124Z,7.10
2018-01-14T07:46:05.107Z,7.20
2018-01-14T07:46:44.101Z,6.80
2018-01-14T07:47:44.090Z,7.10
2018-01-14T07:48:44.101Z,7.10
2018-01-14T07:49:44.092Z,7.20
2018-01-14T07:50:44.082Z,7.10
2018-01-14T07:52:05.080Z,7.10
2018-01-14T07:52:44.081Z,7.30
2018-01-14T07:53:44.066Z,6.70
2018-01-14T07:54:44.070Z,7.10
2018-01-14T07:55:44.074Z,7.30
2018-01-14T07:56:44.060Z,7.10
2018-01-14T07:58:05.071Z,6.80
2018-01-14T07:58:44.062Z,6.90
2018-01-14T07:59:44.062Z,7.20
2018-01-14T08:00:44.057Z,7.20
2018-01-14T08:01:44.054Z,6.90
2018-01-14T08:02:44.049Z,6.90
2018-01-14T08:04:05.050Z,7.30
2018-01-14T08:04:44.037Z,6.70
2018-01-14T08:05:44.034Z,7.00
2018-01-14T08:06:44.034Z,7.00
2018-01-14T08:07:44.035Z,7.10
2018-01-14T08:08:44.022Z,6.70
2018-01-14T08:10:05.024Z,6.80
2018-01-14T08:10:44.020Z,6.80
2018-01-14T08:11:44.022Z,7.00
2018-01-14T08:12:44.005Z,7.40
2018-01-14T08:13:44.003Z,7.10
2018-01-14T08:14:43.998Z,6.70
2018-01-14T08:16:05.005Z,7.00
2018-01-14T08:16:43.994Z,7.00
2018-01-14T08:17:43.991Z,6.80
2018-01-14T08:18:43.990Z,7.20
2018-01-14T08:19:43.976Z,7.40
2018-01-14T08:20:43.974Z,7.50
2018-01-14T08:22:04.989Z,6.90
2018-01-14T08:22:43.974Z,9.80
2018-01-14T08:23:43.992Z,7.40
2018-01-14T08:24:43.977Z,8.30
2018-01-14T08:25:43.973Z,8.00
2018-01-14T08:26:43.969Z,7.20
2018-01-14T08:28:04.968Z,9.20
2018-01-14T08:28:43.955Z,21.10
2018-01-14T08:29:43.951Z,14.80
2018-01-14T08:30:43.953Z,21.50
2018-01-14T08:31:43.941Z,41.40
2018-01-14T08:32:43.938Z,36.20
2018-01-14T08:34:04.966Z,56.60
2018-01-14T08:34:43.946Z,87.30
2018-01-14T08:35:43.935Z,97.40
2018-01-14T08:36:43.952Z,117.90
2018-01-14T08:37:43.909Z,122.00
2018-01-14T08:38:43.937Z,107.40
2018-01-14T08:40:04.946Z,128.80
2018-01-14T08:40:43.923Z,122.60
2018-01-14T08:41:43.904Z,116.00
2018-01-14T08:42:43.907Z,116.20
2018-01-14T08:43:43.917Z,114.70
2018-01-14T08:44:43.902Z,123.70
2018-01-14T08:46:04.902Z,117.40
2018-01-14T08:46:43.900Z,154.60
2018-01-14T08:47:43.885Z,149.80
2018-01-14T08:48:43.881Z,129.00
2018-01-14T08:49:43.880Z,131.30
2018-01-14T08:50:43.896Z,135.50
2018-01-14T08:52:04.885Z,126.70
2018-01-14T08:52:43.867Z,124.10
2018-01-14T08:53:43.873Z,130.10
2018-01-14T08:54:43.869Z,126.20
2018-01-14T08:55:43.842Z,139.70
2018-01-14T08:56:43.853Z,120.00
2018-01-14T08:58:04.866Z,129.60
2018-01-14T08:58:43.861Z,128.30
2018-01-14T08:59:43.851Z,125.10
2018-01-14T09:00:43.857Z,136.30
2018-01-14T09:01:43.858Z,131.00
2018-01-14T09:02:43.836Z,126.90
2018-01-14T09:04:04.843Z,126.70
2018-01-14T09:04:43.818Z,127.00
2018-01-14T09:05:43.835Z,124.70
2018-01-14T09:06:43.829Z,111.60
2018-01-14T09:07:43.822Z,121.00
2018-01-14T09:08:43.829Z,120.70
2018-01-14T09:10:04.829Z,117.60
2018-01-14T09:10:43.827Z,114.30
2018-01-14T09:11:43.816Z,113.20
2018-01-14T09:12:43.808Z,124.90
2018-01-14T09:13:43.798Z,115.80
2018-01-14T09:14:43.801Z,119.00
2018-01-14T09:16:04.807Z,111.30
2018-01-14T09:16:43.792Z,108.50
2018-01-14T09:17:43.800Z,105.60
2018-01-14T09:18:43.787Z,103.10
2018-01-14T09:19:43.789Z,102.40
2018-01-14T09:20:43.786Z,112.10
2018-01-14T09:22:04.794Z,103.30
2018-01-14T09:22:43.801Z,105.50
2018-01-14T09:23:43.773Z,107.10
2018-01-14T09:24:43.778Z,98.50
2018-01-14T09:25:43.766Z,104.70
2018-01-14T09:26:43.766Z,95.10
2018-01-14T09:28:04.767Z,102.80
2018-01-14T09:28:43.749Z,104.00
2018-01-14T09:29:43.781Z,103.30
2018-01-14T09:30:43.762Z,103.20
2018-01-14T09:31:43.765Z,105.40
2018-01-14T09:32:43.752Z,96.50
2018-01-14T09:34:04.752Z,84.80
2018-01-14T09:34:43.731Z,96.30
2018-01-14T09:35:43.757Z,97.90
2018-01-14T09:36:43.734Z,97.70
2018-01-14T09:37:43.728Z,89.10
2018-01-14T09:38:43.728Z,101.20
2018-01-14T09:40:04.742Z,92.70
2018-01-14T09:40:43.723Z,94.40
2018-01-14T09:41:43.718Z,92.80
2018-01-14T09:42:43.722Z,82.50
2018-01-14T09:43:43.713Z,88.10
2018-01-14T09:44:43.709Z,90.70
2018-01-14T09:46:04.713Z,91.00
2018-01-14T09:46:43.693Z,84.70
2018-01-14T09:47:43.694Z,82.00
2018-01-14T09:48:43.717Z,84.00
2018-01-14T09:49:43.689Z,82.40
2018-01-14T09:50:43.689Z,85.50
2018-01-14T09:52:04.689Z,79.00
2018-01-14T09:52:43.695Z,83.50
2018-01-14T09:53:43.717Z,85.40
2018-01-14T09:54:43.684Z,80.00
2018-01-14T09:55:43.681Z,81.00
2018-01-14T09:56:43.669Z,75.90
2018-01-14T09:58:04.702Z,83.10
2018-01-14T09:58:43.672Z,72.10
2018-01-14T09:59:43.668Z,81.60
2018-01-14T10:00:43.678Z,75.50
2018-01-14T10:01:43.658Z,73.30
2018-01-14T10:02:43.670Z,74.30
2018-01-14T10:04:04.657Z,79.20
2018-01-14T10:04:43.673Z,71.80
2018-01-14T10:05:43.669Z,80.10
2018-01-14T10:06:43.647Z,73.30
2018-01-14T10:07:43.648Z,74.90
2018-01-14T10:08:43.640Z,69.20
2018-01-14T10:10:04.646Z,75.30
2018-01-14T10:10:43.634Z,73.70
2018-01-14T10:11:43.643Z,71.50
2018-01-14T10:12:43.632Z,66.80
2018-01-14T10:13:43.621Z,66.50
2018-01-14T10:14:43.633Z,69.60
2018-01-14T10:16:04.619Z,70.30
2018-01-14T10:16:43.614Z,65.90
2018-01-14T10:17:43.663Z,71.30
2018-01-14T10:18:43.623Z,62.00
2018-01-14T10:19:43.598Z,68.80
2018-01-14T10:20:43.665Z,61.20
2018-01-14T10:22:04.608Z,65.90
2018-01-14T10:22:43.608Z,69.50
2018-01-14T10:23:43.597Z,62.70
2018-01-14T10:24:43.590Z,62.60
2018-01-14T10:25:43.590Z,54.30
2018-01-14T10:26:43.590Z,64.50
2018-01-14T10:28:04.598Z,61.60
2018-01-14T10:28:43.593Z,69.00
2018-01-14T10:29:43.584Z,63.30
2018-01-14T10:30:43.584Z,63.40
2018-01-14T10:31:43.578Z,57.40
2018-01-14T10:32:43.604Z,55.20
2018-01-14T10:34:04.594Z,58.20
2018-01-14T10:34:43.571Z,59.50
2018-01-14T10:35:43.565Z,58.90
2018-01-14T10:36:43.570Z,53.20
2018-01-14T10:37:43.559Z,62.80
2018-01-14T10:38:43.549Z,55.90
2018-01-14T10:40:04.558Z,53.00
2018-01-14T10:40:43.561Z,54.00
2018-01-14T10:41:43.554Z,51.40
2018-01-14T10:42:43.564Z,59.40
2018-01-14T10:43:43.548Z,56.00
2018-01-14T10:44:43.543Z,48.70
2018-01-14T10:46:04.550Z,53.90
2018-01-14T10:46:43.548Z,53.90
2018-01-14T10:47:43.571Z,56.10
2018-01-14T10:48:43.528Z,52.10
2018-01-14T10:49:43.537Z,54.80
2018-01-14T10:50:43.520Z,51.60
2018-01-14T10:52:04.527Z,52.30
2018-01-14T10:52:43.521Z,56.00
2018-01-14T10:53:43.526Z,50.40
2018-01-14T10:54:43.516Z,53.10
2018-01-14T10:55:43.508Z,50.50
2018-01-14T10:56:43.513Z,43.70
2018-01-14T10:58:04.520Z,50.60
2018-01-14T10:58:43.511Z,48.60
2018-01-14T10:59:43.503Z,45.00
2018-01-14T11:00:43.526Z,46.70
2018-01-14T11:01:43.504Z,46.80
2018-01-14T11:02:43.509Z,46.10
2018-01-14T11:04:04.521Z,46.10
2018-01-14T11:04:43.489Z,46.10
2018-01-14T11:05:43.498Z,44.50
2018-01-14T11:06:43.491Z,46.10
2018-01-14T11:07:43.480Z,46.80
2018-01-14T11:08:43.478Z,40.40
2018-01-14T11:10:04.485Z,44.10
2018-01-14T11:10:43.480Z,44.80
2018-01-14T11:11:43.474Z,44.70
2018-01-14T11:12:43.485Z,45.50
2018-01-14T11:13:43.468Z,43.00
2018-01-14T11:14:43.464Z,38.60
2018-01-14T11:16:04.472Z,43.70
2018-01-14T11:16:43.465Z,45.80
2018-01-14T11:17:43.461Z,41.10
2018-01-14T11:18:43.461Z,40.80
2018-01-14T11:19:43.449Z,40.40
2018-01-14T11:20:43.460Z,39.70
2018-01-14T11:22:04.450Z,38.80
2018-01-14T11:22:43.456Z,36.90
2018-01-14T11:23:43.453Z,37.50
2018-01-14T11:24:43.438Z,44.20
2018-01-14T11:25:43.437Z,37.50
2018-01-14T11:26:43.424Z,37.60
2018-01-14T11:28:04.430Z,38.50
2018-01-14T11:28:43.444Z,35.00
2018-01-14T11:29:43.425Z,35.30
2018-01-14T11:30:43.415Z,39.00
2018-01-14T11:31:43.416Z,35.90
2018-01-14T11:32:43.424Z,33.30
2018-01-14T11:34:04.424Z,38.10
2018-01-14T11:34:43.413Z,36.60
2018-01-14T11:35:43.405Z,34.80
2018-01-14T11:36:43.424Z,37.50
2018-01-14T11:37:43.402Z,34.30
2018-01-14T11:38:43.390Z,35.40
2018-01-14T11:40:04.399Z,36.90
2018-01-14T11:40:43.393Z,34.20
2018-01-14T11:41:43.390Z,32.20
2018-01-14T11:42:43.379Z,32.40
2018-01-14T11:43:43.389Z,33.70
2018-01-14T11:44:43.380Z,33.00
2018-01-14T11:46:04.391Z,34.10
2018-01-14T11:46:43.376Z,34.20
2018-01-14T11:47:43.383Z,34.40
2018-01-14T11:48:43.379Z,35.10
2018-01-14T11:49:43.370Z,29.80
2018-01-14T11:50:43.369Z,34.20
2018-01-14T11:52:04.360Z,30.40
2018-01-14T11:52:43.367Z,33.50
2018-01-14T11:53:43.370Z,31.40
2018-01-14T11:54:43.360Z,33.50
2018-01-14T11:55:43.341Z,31.90
2018-01-14T11:56:43.343Z,33.40
2018-01-14T11:58:04.356Z,32.10
2018-01-14T11:58:43.371Z,30.70
2018-01-14T11:59:43.329Z,28.40
2018-01-14T12:00:43.327Z,28.60
2018-01-14T12:01:43.332Z,29.60
2018-01-14T12:02:43.333Z,30.10
2018-01-14T12:04:04.342Z,32.40
2018-01-14T12:04:43.321Z,29.20
2018-01-14T12:05:43.334Z,31.90
2018-01-14T12:06:43.354Z,34.30
2018-01-14T12:07:43.320Z,29.20
2018-01-14T12:08:43.321Z,29.50
2018-01-14T12:10:04.338Z,27.80
2018-01-14T12:10:43.305Z,27.90
2018-01-14T12:11:43.301Z,25.90
2018-01-14T12:12:43.307Z,28.70
2018-01-14T12:13:43.290Z,31.60
2018-01-14T12:14:43.299Z,30.30
2018-01-14T12:16:04.296Z,26.70
2018-01-14T12:16:43.285Z,30.30
2018-01-14T12:17:43.287Z,27.80
2018-01-14T12:18:43.284Z,30.10
2018-01-14T12:19:43.285Z,29.70
2018-01-14T12:20:43.282Z,26.00
2018-01-14T12:22:04.282Z,26.90
2018-01-14T12:22:43.299Z,25.90
2018-01-14T12:23:43.279Z,25.00
2018-01-14T12:24:43.271Z,28.70
2018-01-14T12:25:43.260Z,26.80
2018-01-14T12:26:43.274Z,26.30
2018-01-14T12:28:04.275Z,29.30
2018-01-14T12:28:43.288Z,28.90
2018-01-14T12:29:43.286Z,25.10
2018-01-14T12:30:43.275Z,27.30
2018-01-14T12:31:43.235Z,27.10
2018-01-14T12:32:43.243Z,26.00
2018-01-14T12:34:04.262Z,26.60
2018-01-14T12:34:43.241Z,24.50
2018-01-14T12:35:43.225Z,25.80
2018-01-14T12:36:43.228Z,24.00
2018-01-14T12:37:43.222Z,21.50
2018-01-14T12:38:43.243Z,24.40
2018-01-14T12:40:04.233Z,24.00
2018-01-14T12:40:43.216Z,23.90
2018-01-14T12:41:43.256Z,23.90
2018-01-14T12:42:43.210Z,25.20
2018-01-14T12:43:43.237Z,23.40
2018-01-14T12:44:43.219Z,22.10
2018-01-14T12:46:04.209Z,26.20
2018-01-14T12:46:43.213Z,24.30
2018-01-14T12:47:43.202Z,23.70
2018-01-14T12:48:43.204Z,25.60
2018-01-14T12:49:43.196Z,24.20
2018-01-14T12:50:43.193Z,23.10
2018-01-14T12:52:04.196Z,23.50
2018-01-14T12:52:43.192Z,22.60
2018-01-14T12:53:43.193Z,21.80
2018-01-14T12:54:43.176Z,22.70
2018-01-14T12:55:43.177Z,20.70
2018-01-14T12:56:43.189Z,20.70
2018-01-14T12:58:04.177Z,22.20
2018-01-14T12:58:43.181Z,21.40
2018-01-14T12:59:43.201Z,21.50
2018-01-14T13:00:43.180Z,21.90
2018-01-14T13:01:43.154Z,21.00
2018-01-14T13:02:43.156Z,23.20
2018-01-14T13:04:04.182Z,20.40
2018-01-14T13:04:43.147Z,20.60
2018-01-14T13:05:43.146Z,21.30
2018-01-14T13:06:43.144Z,22.80
2018-01-14T13:07:43.136Z,21.00